sensor_id;sensor_type;location;lat;lon;timestamp;P1;durP1;ratioP1;P2;durP2;ratioP2
9420;SDS011;4749;51.398;5.466;2023-04-06T00:01:10;16.83;;;10.83;;
9420;SDS011;4749;51.398;5.466;2023-04-06T00:03:37;19.33;;;11.00;;
9420;SDS011;4749;51.398;5.466;2023-04-06T00:06:05;20.13;;;11.43;;
9420;SDS011;4749;51.398;5.466;2023-04-06T00:08:32;16.53;;;10.37;;
9420;SDS011;4749;51.398;5.466;2023-04-06T00:10:59;15.43;;;10.33;;
9420;SDS011;4749;51.398;5.466;2023-04-06T00:13:27;18.13;;;10.50;;
9420;SDS011;4749;51.398;5.466;2023-04-06T00:15:54;14.57;;;10.47;;
9420;SDS011;4749;51.398;5.466;2023-04-06T00:18:22;18.40;;;11.20;;
9420;SDS011;4749;51.398;5.466;2023-04-06T00:20:49;15.37;;;10.50;;
9420;SDS011;4749;51.398;5.466;2023-04-06T00:23:17;17.13;;;9.93;;
9420;SDS011;4749;51.398;5.466;2023-04-06T00:25:44;15.13;;;10.30;;
9420;SDS011;4749;51.398;5.466;2023-04-06T00:28:11;21.17;;;10.70;;
9420;SDS011;4749;51.398;5.466;2023-04-06T00:30:39;17.77;;;11.23;;
9420;SDS011;4749;51.398;5.466;2023-04-06T00:33:07;16.23;;;10.10;;
9420;SDS011;4749;51.398;5.466;2023-04-06T00:35:34;18.80;;;11.03;;
9420;SDS011;4749;51.398;5.466;2023-04-06T00:38:02;15.73;;;10.33;;
9420;SDS011;4749;51.398;5.466;2023-04-06T00:40:29;18.47;;;10.87;;
9420;SDS011;4749;51.398;5.466;2023-04-06T00:42:57;18.13;;;11.00;;
9420;SDS011;4749;51.398;5.466;2023-04-06T00:45:24;17.53;;;10.90;;
9420;SDS011;4749;51.398;5.466;2023-04-06T00:47:51;15.10;;;9.77;;
9420;SDS011;4749;51.398;5.466;2023-04-06T00:50:19;16.90;;;11.20;;
9420;SDS011;4749;51.398;5.466;2023-04-06T00:52:46;15.43;;;10.30;;
9420;SDS011;4749;51.398;5.466;2023-04-06T00:55:14;15.97;;;10.50;;
9420;SDS011;4749;51.398;5.466;2023-04-06T00:57:41;14.90;;;9.80;;
9420;SDS011;4749;51.398;5.466;2023-04-06T01:00:10;16.87;;;10.87;;
9420;SDS011;4749;51.398;5.466;2023-04-06T01:02:42;16.90;;;10.23;;
9420;SDS011;4749;51.398;5.466;2023-04-06T01:05:11;15.90;;;11.20;;
9420;SDS011;4749;51.398;5.466;2023-04-06T01:07:38;19.13;;;10.73;;
9420;SDS011;4749;51.398;5.466;2023-04-06T01:10:06;16.20;;;10.20;;
9420;SDS011;4749;51.398;5.466;2023-04-06T01:12:33;17.33;;;10.33;;
9420;SDS011;4749;51.398;5.466;2023-04-06T01:15:01;16.57;;;10.43;;
9420;SDS011;4749;51.398;5.466;2023-04-06T01:17:28;16.37;;;10.60;;
9420;SDS011;4749;51.398;5.466;2023-04-06T01:19:55;15.87;;;10.57;;
9420;SDS011;4749;51.398;5.466;2023-04-06T01:22:23;19.73;;;12.13;;
9420;SDS011;4749;51.398;5.466;2023-04-06T01:24:51;16.77;;;11.27;;
9420;SDS011;4749;51.398;5.466;2023-04-06T01:27:18;18.00;;;10.83;;
9420;SDS011;4749;51.398;5.466;2023-04-06T01:29:45;17.37;;;11.10;;
9420;SDS011;4749;51.398;5.466;2023-04-06T01:32:12;17.10;;;11.00;;
9420;SDS011;4749;51.398;5.466;2023-04-06T01:34:39;18.17;;;11.07;;
9420;SDS011;4749;51.398;5.466;2023-04-06T01:37:07;21.90;;;11.47;;
9420;SDS011;4749;51.398;5.466;2023-04-06T01:39:34;17.43;;;11.53;;
9420;SDS011;4749;51.398;5.466;2023-04-06T01:42:01;17.03;;;11.17;;
9420;SDS011;4749;51.398;5.466;2023-04-06T01:44:28;18.80;;;11.90;;
9420;SDS011;4749;51.398;5.466;2023-04-06T01:46:57;18.90;;;11.80;;
9420;SDS011;4749;51.398;5.466;2023-04-06T01:49:24;19.30;;;11.77;;
9420;SDS011;4749;51.398;5.466;2023-04-06T01:51:52;18.80;;;12.33;;
9420;SDS011;4749;51.398;5.466;2023-04-06T01:54:20;19.60;;;12.50;;
9420;SDS011;4749;51.398;5.466;2023-04-06T01:56:47;20.37;;;12.73;;
9420;SDS011;4749;51.398;5.466;2023-04-06T01:59:16;19.37;;;13.13;;
9420;SDS011;4749;51.398;5.466;2023-04-06T02:01:43;21.53;;;12.30;;
9420;SDS011;4749;51.398;5.466;2023-04-06T02:04:11;19.90;;;12.77;;
9420;SDS011;4749;51.398;5.466;2023-04-06T02:06:40;18.53;;;13.07;;
9420;SDS011;4749;51.398;5.466;2023-04-06T02:09:07;20.90;;;13.40;;
9420;SDS011;4749;51.398;5.466;2023-04-06T02:11:35;23.40;;;13.00;;
9420;SDS011;4749;51.398;5.466;2023-04-06T02:14:02;22.13;;;13.53;;
9420;SDS011;4749;51.398;5.466;2023-04-06T02:16:29;19.87;;;12.70;;
9420;SDS011;4749;51.398;5.466;2023-04-06T02:18:56;19.73;;;12.07;;
9420;SDS011;4749;51.398;5.466;2023-04-06T02:21:24;21.63;;;13.57;;
9420;SDS011;4749;51.398;5.466;2023-04-06T02:23:51;20.80;;;13.33;;
9420;SDS011;4749;51.398;5.466;2023-04-06T02:26:18;23.10;;;13.63;;
9420;SDS011;4749;51.398;5.466;2023-04-06T02:28:45;23.33;;;13.40;;
9420;SDS011;4749;51.398;5.466;2023-04-06T02:31:12;22.03;;;14.33;;
9420;SDS011;4749;51.398;5.466;2023-04-06T02:33:41;22.23;;;13.70;;
9420;SDS011;4749;51.398;5.466;2023-04-06T02:36:08;22.10;;;13.87;;
9420;SDS011;4749;51.398;5.466;2023-04-06T02:38:35;21.97;;;13.93;;
9420;SDS011;4749;51.398;5.466;2023-04-06T02:41:02;19.53;;;13.23;;
9420;SDS011;4749;51.398;5.466;2023-04-06T02:43:29;22.13;;;15.10;;
9420;SDS011;4749;51.398;5.466;2023-04-06T02:45:56;24.00;;;14.63;;
9420;SDS011;4749;51.398;5.466;2023-04-06T02:48:23;25.10;;;13.67;;
9420;SDS011;4749;51.398;5.466;2023-04-06T02:50:51;22.37;;;14.23;;
9420;SDS011;4749;51.398;5.466;2023-04-06T02:53:18;24.10;;;14.50;;
9420;SDS011;4749;51.398;5.466;2023-04-06T02:55:45;26.77;;;14.00;;
9420;SDS011;4749;51.398;5.466;2023-04-06T02:58:12;24.23;;;14.97;;
9420;SDS011;4749;51.398;5.466;2023-04-06T03:00:40;23.10;;;14.93;;
9420;SDS011;4749;51.398;5.466;2023-04-06T03:03:07;22.47;;;14.07;;
9420;SDS011;4749;51.398;5.466;2023-04-06T03:05:34;25.13;;;14.20;;
9420;SDS011;4749;51.398;5.466;2023-04-06T03:08:02;22.47;;;15.03;;
9420;SDS011;4749;51.398;5.466;2023-04-06T03:10:29;23.57;;;13.87;;
9420;SDS011;4749;51.398;5.466;2023-04-06T03:12:56;23.73;;;14.73;;
9420;SDS011;4749;51.398;5.466;2023-04-06T03:15:23;27.20;;;15.53;;
9420;SDS011;4749;51.398;5.466;2023-04-06T03:17:50;23.43;;;14.87;;
9420;SDS011;4749;51.398;5.466;2023-04-06T03:20:18;25.30;;;14.07;;
9420;SDS011;4749;51.398;5.466;2023-04-06T03:22:46;22.87;;;14.60;;
9420;SDS011;4749;51.398;5.466;2023-04-06T03:25:13;20.73;;;14.20;;
9420;SDS011;4749;51.398;5.466;2023-04-06T03:27:40;24.43;;;14.50;;
9420;SDS011;4749;51.398;5.466;2023-04-06T03:30:07;21.27;;;14.13;;
9420;SDS011;4749;51.398;5.466;2023-04-06T03:32:35;23.80;;;14.87;;
9420;SDS011;4749;51.398;5.466;2023-04-06T03:35:02;20.97;;;13.73;;
9420;SDS011;4749;51.398;5.466;2023-04-06T03:37:30;24.83;;;15.13;;
9420;SDS011;4749;51.398;5.466;2023-04-06T03:39:57;22.03;;;14.47;;
9420;SDS011;4749;51.398;5.466;2023-04-06T03:42:24;23.73;;;14.27;;
9420;SDS011;4749;51.398;5.466;2023-04-06T03:44:52;23.23;;;13.87;;
9420;SDS011;4749;51.398;5.466;2023-04-06T03:47:20;27.93;;;15.20;;
9420;SDS011;4749;51.398;5.466;2023-04-06T03:49:47;25.63;;;15.33;;
9420;SDS011;4749;51.398;5.466;2023-04-06T03:52:14;24.50;;;15.50;;
9420;SDS011;4749;51.398;5.466;2023-04-06T03:54:41;24.33;;;15.07;;
9420;SDS011;4749;51.398;5.466;2023-04-06T03:57:08;23.40;;;14.00;;
9420;SDS011;4749;51.398;5.466;2023-04-06T03:59:35;24.70;;;15.00;;
9420;SDS011;4749;51.398;5.466;2023-04-06T04:02:02;24.03;;;13.87;;
9420;SDS011;4749;51.398;5.466;2023-04-06T04:04:30;24.23;;;15.23;;
9420;SDS011;4749;51.398;5.466;2023-04-06T04:06:57;25.80;;;15.70;;
9420;SDS011;4749;51.398;5.466;2023-04-06T04:09:24;26.87;;;15.70;;
9420;SDS011;4749;51.398;5.466;2023-04-06T04:11:54;25.47;;;16.03;;
9420;SDS011;4749;51.398;5.466;2023-04-06T04:14:22;24.23;;;14.47;;
9420;SDS011;4749;51.398;5.466;2023-04-06T04:16:49;29.23;;;16.10;;
9420;SDS011;4749;51.398;5.466;2023-04-06T04:19:16;26.13;;;15.27;;
9420;SDS011;4749;51.398;5.466;2023-04-06T04:21:44;24.63;;;15.43;;
9420;SDS011;4749;51.398;5.466;2023-04-06T04:24:13;23.93;;;15.43;;
9420;SDS011;4749;51.398;5.466;2023-04-06T04:26:40;26.00;;;15.13;;
9420;SDS011;4749;51.398;5.466;2023-04-06T04:29:07;23.60;;;14.67;;
9420;SDS011;4749;51.398;5.466;2023-04-06T04:31:35;23.37;;;14.10;;
9420;SDS011;4749;51.398;5.466;2023-04-06T04:34:02;28.53;;;16.20;;
9420;SDS011;4749;51.398;5.466;2023-04-06T04:36:30;25.03;;;15.60;;
9420;SDS011;4749;51.398;5.466;2023-04-06T04:38:57;25.13;;;14.80;;
9420;SDS011;4749;51.398;5.466;2023-04-06T04:41:27;22.40;;;14.43;;
9420;SDS011;4749;51.398;5.466;2023-04-06T04:43:54;23.20;;;15.00;;
9420;SDS011;4749;51.398;5.466;2023-04-06T04:46:21;24.37;;;14.57;;
9420;SDS011;4749;51.398;5.466;2023-04-06T04:48:48;26.37;;;14.93;;
9420;SDS011;4749;51.398;5.466;2023-04-06T04:51:16;25.80;;;15.70;;
9420;SDS011;4749;51.398;5.466;2023-04-06T04:53:43;22.97;;;14.53;;
9420;SDS011;4749;51.398;5.466;2023-04-06T04:56:10;26.17;;;15.60;;
9420;SDS011;4749;51.398;5.466;2023-04-06T04:58:37;24.73;;;14.37;;
9420;SDS011;4749;51.398;5.466;2023-04-06T05:01:04;23.17;;;14.50;;
9420;SDS011;4749;51.398;5.466;2023-04-06T05:03:32;20.97;;;14.17;;
9420;SDS011;4749;51.398;5.466;2023-04-06T05:05:59;25.60;;;15.60;;
9420;SDS011;4749;51.398;5.466;2023-04-06T05:08:26;25.23;;;15.13;;
9420;SDS011;4749;51.398;5.466;2023-04-06T05:10:53;23.70;;;13.93;;
9420;SDS011;4749;51.398;5.466;2023-04-06T05:13:21;26.23;;;15.50;;
9420;SDS011;4749;51.398;5.466;2023-04-06T05:15:48;25.17;;;15.07;;
9420;SDS011;4749;51.398;5.466;2023-04-06T05:18:15;23.77;;;14.93;;
9420;SDS011;4749;51.398;5.466;2023-04-06T05:20:43;27.23;;;15.20;;
9420;SDS011;4749;51.398;5.466;2023-04-06T05:23:10;23.07;;;14.53;;
9420;SDS011;4749;51.398;5.466;2023-04-06T05:25:37;24.20;;;14.17;;
9420;SDS011;4749;51.398;5.466;2023-04-06T05:28:04;22.53;;;14.43;;
9420;SDS011;4749;51.398;5.466;2023-04-06T05:30:31;24.07;;;15.53;;
9420;SDS011;4749;51.398;5.466;2023-04-06T05:32:58;23.07;;;14.37;;
9420;SDS011;4749;51.398;5.466;2023-04-06T05:35:26;24.57;;;14.47;;
9420;SDS011;4749;51.398;5.466;2023-04-06T05:37:53;24.77;;;14.80;;
9420;SDS011;4749;51.398;5.466;2023-04-06T05:40:20;23.27;;;14.47;;
9420;SDS011;4749;51.398;5.466;2023-04-06T05:42:47;26.00;;;14.80;;
9420;SDS011;4749;51.398;5.466;2023-04-06T05:45:15;22.03;;;14.60;;
9420;SDS011;4749;51.398;5.466;2023-04-06T05:47:43;25.27;;;14.33;;
9420;SDS011;4749;51.398;5.466;2023-04-06T05:50:11;24.47;;;14.37;;
9420;SDS011;4749;51.398;5.466;2023-04-06T05:52:38;26.50;;;14.33;;
9420;SDS011;4749;51.398;5.466;2023-04-06T05:55:09;21.43;;;13.50;;
9420;SDS011;4749;51.398;5.466;2023-04-06T05:57:37;22.83;;;14.20;;
9420;SDS011;4749;51.398;5.466;2023-04-06T06:00:05;26.97;;;15.50;;
9420;SDS011;4749;51.398;5.466;2023-04-06T06:02:37;22.63;;;13.00;;
9420;SDS011;4749;51.398;5.466;2023-04-06T06:05:06;22.97;;;14.50;;
9420;SDS011;4749;51.398;5.466;2023-04-06T06:07:34;21.73;;;13.90;;
9420;SDS011;4749;51.398;5.466;2023-04-06T06:10:01;20.27;;;13.03;;
9420;SDS011;4749;51.398;5.466;2023-04-06T06:12:29;22.57;;;13.37;;
9420;SDS011;4749;51.398;5.466;2023-04-06T06:14:56;24.00;;;13.77;;
9420;SDS011;4749;51.398;5.466;2023-04-06T06:17:23;19.10;;;13.30;;
9420;SDS011;4749;51.398;5.466;2023-04-06T06:19:51;20.00;;;12.60;;
9420;SDS011;4749;51.398;5.466;2023-04-06T06:22:18;20.40;;;12.60;;
9420;SDS011;4749;51.398;5.466;2023-04-06T06:24:45;21.83;;;12.40;;
9420;SDS011;4749;51.398;5.466;2023-04-06T06:27:12;21.23;;;13.10;;
9420;SDS011;4749;51.398;5.466;2023-04-06T06:29:39;19.50;;;13.30;;
9420;SDS011;4749;51.398;5.466;2023-04-06T06:32:07;22.43;;;13.10;;
9420;SDS011;4749;51.398;5.466;2023-04-06T06:34:35;20.60;;;13.37;;
9420;SDS011;4749;51.398;5.466;2023-04-06T06:37:02;21.97;;;13.47;;
9420;SDS011;4749;51.398;5.466;2023-04-06T06:39:29;23.57;;;12.80;;
9420;SDS011;4749;51.398;5.466;2023-04-06T06:41:56;19.10;;;12.17;;
9420;SDS011;4749;51.398;5.466;2023-04-06T06:44:27;18.87;;;12.07;;
9420;SDS011;4749;51.398;5.466;2023-04-06T06:46:54;21.30;;;13.20;;
9420;SDS011;4749;51.398;5.466;2023-04-06T06:49:21;20.23;;;12.57;;
9420;SDS011;4749;51.398;5.466;2023-04-06T06:51:48;21.23;;;13.17;;
9420;SDS011;4749;51.398;5.466;2023-04-06T06:54:16;22.17;;;13.03;;
9420;SDS011;4749;51.398;5.466;2023-04-06T06:56:43;20.03;;;13.53;;
9420;SDS011;4749;51.398;5.466;2023-04-06T06:59:10;21.70;;;12.73;;
9420;SDS011;4749;51.398;5.466;2023-04-06T07:01:37;20.33;;;12.87;;
9420;SDS011;4749;51.398;5.466;2023-04-06T07:04:04;20.87;;;13.47;;
9420;SDS011;4749;51.398;5.466;2023-04-06T07:06:32;22.30;;;12.53;;
9420;SDS011;4749;51.398;5.466;2023-04-06T07:08:59;19.73;;;12.50;;
9420;SDS011;4749;51.398;5.466;2023-04-06T07:11:26;20.27;;;12.90;;
9420;SDS011;4749;51.398;5.466;2023-04-06T07:13:53;22.30;;;12.73;;
9420;SDS011;4749;51.398;5.466;2023-04-06T07:16:21;21.83;;;12.93;;
9420;SDS011;4749;51.398;5.466;2023-04-06T07:18:48;19.20;;;12.00;;
9420;SDS011;4749;51.398;5.466;2023-04-06T07:21:15;22.23;;;13.20;;
9420;SDS011;4749;51.398;5.466;2023-04-06T07:23:42;18.23;;;12.77;;
9420;SDS011;4749;51.398;5.466;2023-04-06T07:26:10;17.90;;;11.93;;
9420;SDS011;4749;51.398;5.466;2023-04-06T07:28:37;22.17;;;12.63;;
9420;SDS011;4749;51.398;5.466;2023-04-06T07:31:04;20.77;;;12.00;;
9420;SDS011;4749;51.398;5.466;2023-04-06T07:33:32;20.13;;;12.47;;
9420;SDS011;4749;51.398;5.466;2023-04-06T07:35:59;24.50;;;11.90;;
9420;SDS011;4749;51.398;5.466;2023-04-06T07:38:27;17.97;;;11.73;;
9420;SDS011;4749;51.398;5.466;2023-04-06T07:40:54;19.23;;;12.50;;
9420;SDS011;4749;51.398;5.466;2023-04-06T07:43:21;16.67;;;11.33;;
9420;SDS011;4749;51.398;5.466;2023-04-06T07:45:48;20.00;;;12.32;;
9420;SDS011;4749;51.398;5.466;2023-04-06T07:48:15;19.47;;;12.17;;
9420;SDS011;4749;51.398;5.466;2023-04-06T07:50:43;17.17;;;11.80;;
9420;SDS011;4749;51.398;5.466;2023-04-06T07:53:10;18.75;;;12.13;;
9420;SDS011;4749;51.398;5.466;2023-04-06T07:55:37;20.13;;;12.23;;
9420;SDS011;4749;51.398;5.466;2023-04-06T07:58:04;19.60;;;12.35;;
9420;SDS011;4749;51.398;5.466;2023-04-06T08:00:31;22.23;;;12.05;;
9420;SDS011;4749;51.398;5.466;2023-04-06T08:02:58;20.17;;;12.10;;
9420;SDS011;4749;51.398;5.466;2023-04-06T08:05:26;20.38;;;12.15;;
9420;SDS011;4749;51.398;5.466;2023-04-06T08:07:53;21.00;;;12.07;;
9420;SDS011;4749;51.398;5.466;2023-04-06T08:10:20;18.38;;;11.68;;
9420;SDS011;4749;51.398;5.466;2023-04-06T08:12:47;18.77;;;12.32;;
9420;SDS011;4749;51.398;5.466;2023-04-06T08:15:15;17.23;;;11.50;;
9420;SDS011;4749;51.398;5.466;2023-04-06T08:17:44;19.38;;;11.82;;
9420;SDS011;4749;51.398;5.466;2023-04-06T08:20:11;17.20;;;11.85;;
9420;SDS011;4749;51.398;5.466;2023-04-06T08:22:38;15.48;;;10.93;;
9420;SDS011;4749;51.398;5.466;2023-04-06T08:25:06;19.10;;;11.50;;
9420;SDS011;4749;51.398;5.466;2023-04-06T08:27:33;18.55;;;11.80;;
9420;SDS011;4749;51.398;5.466;2023-04-06T08:30:00;19.35;;;12.35;;
9420;SDS011;4749;51.398;5.466;2023-04-06T08:32:28;19.85;;;11.25;;
9420;SDS011;4749;51.398;5.466;2023-04-06T08:34:56;19.15;;;11.40;;
9420;SDS011;4749;51.398;5.466;2023-04-06T08:37:24;17.58;;;11.50;;
9420;SDS011;4749;51.398;5.466;2023-04-06T08:39:51;18.52;;;11.35;;
9420;SDS011;4749;51.398;5.466;2023-04-06T08:42:20;16.75;;;11.65;;
9420;SDS011;4749;51.398;5.466;2023-04-06T08:44:51;17.30;;;11.60;;
9420;SDS011;4749;51.398;5.466;2023-04-06T08:47:19;19.00;;;11.32;;
9420;SDS011;4749;51.398;5.466;2023-04-06T08:49:50;19.25;;;11.57;;
9420;SDS011;4749;51.398;5.466;2023-04-06T08:52:19;19.42;;;11.85;;
9420;SDS011;4749;51.398;5.466;2023-04-06T08:54:47;17.98;;;11.65;;
9420;SDS011;4749;51.398;5.466;2023-04-06T08:57:14;17.02;;;11.05;;
9420;SDS011;4749;51.398;5.466;2023-04-06T08:59:43;17.92;;;11.40;;
9420;SDS011;4749;51.398;5.466;2023-04-06T09:02:13;17.15;;;11.38;;
9420;SDS011;4749;51.398;5.466;2023-04-06T09:04:45;21.25;;;11.35;;
9420;SDS011;4749;51.398;5.466;2023-04-06T09:07:15;16.98;;;11.60;;
9420;SDS011;4749;51.398;5.466;2023-04-06T09:09:42;18.42;;;11.80;;
9420;SDS011;4749;51.398;5.466;2023-04-06T09:12:26;20.65;;;11.32;;
9420;SDS011;4749;51.398;5.466;2023-04-06T09:14:57;19.23;;;11.27;;
9420;SDS011;4749;51.398;5.466;2023-04-06T09:17:27;18.90;;;10.82;;
9420;SDS011;4749;51.398;5.466;2023-04-06T09:20:00;16.60;;;11.40;;
9420;SDS011;4749;51.398;5.466;2023-04-06T09:22:38;17.05;;;11.27;;
9420;SDS011;4749;51.398;5.466;2023-04-06T09:25:08;16.73;;;11.20;;
9420;SDS011;4749;51.398;5.466;2023-04-06T09:27:37;16.52;;;10.60;;
9420;SDS011;4749;51.398;5.466;2023-04-06T09:30:06;18.40;;;11.13;;
9420;SDS011;4749;51.398;5.466;2023-04-06T09:32:47;18.23;;;11.20;;
9420;SDS011;4749;51.398;5.466;2023-04-06T09:35:17;18.20;;;11.48;;
9420;SDS011;4749;51.398;5.466;2023-04-06T09:37:49;16.58;;;10.70;;
9420;SDS011;4749;51.398;5.466;2023-04-06T09:40:18;13.88;;;10.00;;
9420;SDS011;4749;51.398;5.466;2023-04-06T09:42:48;13.77;;;9.80;;
9420;SDS011;4749;51.398;5.466;2023-04-06T09:45:18;17.40;;;10.93;;
9420;SDS011;4749;51.398;5.466;2023-04-06T09:47:47;15.63;;;10.48;;
9420;SDS011;4749;51.398;5.466;2023-04-06T09:50:18;15.82;;;10.52;;
9420;SDS011;4749;51.398;5.466;2023-04-06T09:52:50;17.48;;;10.38;;
9420;SDS011;4749;51.398;5.466;2023-04-06T09:55:22;15.85;;;10.10;;
9420;SDS011;4749;51.398;5.466;2023-04-06T09:58:21;15.25;;;8.75;;
9420;SDS011;4749;51.398;5.466;2023-04-06T10:01:02;16.38;;;9.93;;
9420;SDS011;4749;51.398;5.466;2023-04-06T10:06:40;13.98;;;9.02;;
9420;SDS011;4749;51.398;5.466;2023-04-06T10:09:07;12.25;;;9.20;;
9420;SDS011;4749;51.398;5.466;2023-04-06T10:11:35;12.68;;;8.70;;
9420;SDS011;4749;51.398;5.466;2023-04-06T10:14:03;14.35;;;8.20;;
9420;SDS011;4749;51.398;5.466;2023-04-06T10:16:32;13.80;;;8.50;;
9420;SDS011;4749;51.398;5.466;2023-04-06T10:19:05;13.02;;;8.38;;
9420;SDS011;4749;51.398;5.466;2023-04-06T10:21:43;14.30;;;8.57;;
9420;SDS011;4749;51.398;5.466;2023-04-06T10:24:14;11.63;;;7.78;;
9420;SDS011;4749;51.398;5.466;2023-04-06T10:26:43;11.02;;;7.22;;
9420;SDS011;4749;51.398;5.466;2023-04-06T10:29:22;12.35;;;7.50;;
9420;SDS011;4749;51.398;5.466;2023-04-06T10:31:50;10.85;;;7.95;;
9420;SDS011;4749;51.398;5.466;2023-04-06T10:34:17;10.90;;;6.55;;
9420;SDS011;4749;51.398;5.466;2023-04-06T10:36:44;10.98;;;6.75;;
9420;SDS011;4749;51.398;5.466;2023-04-06T10:39:12;9.40;;;5.65;;
9420;SDS011;4749;51.398;5.466;2023-04-06T10:41:43;9.63;;;6.55;;
9420;SDS011;4749;51.398;5.466;2023-04-06T10:44:19;8.00;;;5.40;;
9420;SDS011;4749;51.398;5.466;2023-04-06T10:46:56;10.77;;;6.22;;
9420;SDS011;4749;51.398;5.466;2023-04-06T10:49:27;7.85;;;5.57;;
9420;SDS011;4749;51.398;5.466;2023-04-06T10:51:54;6.70;;;4.70;;
9420;SDS011;4749;51.398;5.466;2023-04-06T10:54:23;6.72;;;4.70;;
9420;SDS011;4749;51.398;5.466;2023-04-06T10:56:53;6.35;;;4.07;;
9420;SDS011;4749;51.398;5.466;2023-04-06T10:59:21;6.00;;;4.30;;
9420;SDS011;4749;51.398;5.466;2023-04-06T11:01:48;6.38;;;4.40;;
9420;SDS011;4749;51.398;5.466;2023-04-06T11:04:17;7.60;;;4.47;;
9420;SDS011;4749;51.398;5.466;2023-04-06T11:06:48;6.80;;;4.75;;
9420;SDS011;4749;51.398;5.466;2023-04-06T11:09:26;6.65;;;4.75;;
9420;SDS011;4749;51.398;5.466;2023-04-06T11:11:55;9.48;;;5.18;;
9420;SDS011;4749;51.398;5.466;2023-04-06T11:14:23;6.80;;;5.03;;
9420;SDS011;4749;51.398;5.466;2023-04-06T11:16:50;6.97;;;5.18;;
9420;SDS011;4749;51.398;5.466;2023-04-06T11:19:18;7.35;;;5.70;;
9420;SDS011;4749;51.398;5.466;2023-04-06T11:21:46;8.05;;;5.60;;
9420;SDS011;4749;51.398;5.466;2023-04-06T11:26:55;7.90;;;5.10;;
9420;SDS011;4749;51.398;5.466;2023-04-06T11:29:28;10.18;;;6.18;;
9420;SDS011;4749;51.398;5.466;2023-04-06T11:31:58;8.35;;;6.28;;
9420;SDS011;4749;51.398;5.466;2023-04-06T11:34:29;10.23;;;6.18;;
9420;SDS011;4749;51.398;5.466;2023-04-06T11:37:02;10.00;;;5.95;;
9420;SDS011;4749;51.398;5.466;2023-04-06T11:39:39;9.02;;;5.70;;
9420;SDS011;4749;51.398;5.466;2023-04-06T11:42:21;12.10;;;6.82;;
9420;SDS011;4749;51.398;5.466;2023-04-06T11:44:56;11.82;;;6.30;;
9420;SDS011;4749;51.398;5.466;2023-04-06T11:47:27;8.75;;;6.28;;
9420;SDS011;4749;51.398;5.466;2023-04-06T11:50:07;8.75;;;6.43;;
9420;SDS011;4749;51.398;5.466;2023-04-06T11:52:38;8.40;;;6.18;;
9420;SDS011;4749;51.398;5.466;2023-04-06T11:55:17;10.55;;;6.78;;
9420;SDS011;4749;51.398;5.466;2023-04-06T11:57:45;9.07;;;6.80;;
9420;SDS011;4749;51.398;5.466;2023-04-06T12:00:12;8.68;;;6.28;;
9420;SDS011;4749;51.398;5.466;2023-04-06T12:02:40;10.68;;;6.82;;
9420;SDS011;4749;51.398;5.466;2023-04-06T12:05:13;11.45;;;6.70;;
9420;SDS011;4749;51.398;5.466;2023-04-06T12:07:40;8.65;;;6.13;;
9420;SDS011;4749;51.398;5.466;2023-04-06T12:10:08;10.20;;;6.82;;
9420;SDS011;4749;51.398;5.466;2023-04-06T12:12:36;10.07;;;7.28;;
9420;SDS011;4749;51.398;5.466;2023-04-06T12:15:03;10.48;;;6.47;;
9420;SDS011;4749;51.398;5.466;2023-04-06T12:17:31;11.02;;;6.72;;
9420;SDS011;4749;51.398;5.466;2023-04-06T12:19:58;10.13;;;7.03;;
9420;SDS011;4749;51.398;5.466;2023-04-06T12:22:31;9.70;;;7.03;;
9420;SDS011;4749;51.398;5.466;2023-04-06T12:24:58;10.73;;;6.65;;
9420;SDS011;4749;51.398;5.466;2023-04-06T12:27:25;13.23;;;6.75;;
9420;SDS011;4749;51.398;5.466;2023-04-06T12:29:53;8.63;;;6.53;;
9420;SDS011;4749;51.398;5.466;2023-04-06T12:32:21;8.10;;;6.05;;
9420;SDS011;4749;51.398;5.466;2023-04-06T12:34:50;10.05;;;6.95;;
9420;SDS011;4749;51.398;5.466;2023-04-06T12:37:19;9.45;;;6.55;;
9420;SDS011;4749;51.398;5.466;2023-04-06T12:39:46;8.18;;;6.63;;
9420;SDS011;4749;51.398;5.466;2023-04-06T12:42:13;9.70;;;6.22;;
9420;SDS011;4749;51.398;5.466;2023-04-06T12:44:41;15.40;;;6.90;;
9420;SDS011;4749;51.398;5.466;2023-04-06T12:47:09;11.73;;;6.68;;
9420;SDS011;4749;51.398;5.466;2023-04-06T12:49:37;10.55;;;6.63;;
9420;SDS011;4749;51.398;5.466;2023-04-06T12:52:04;9.90;;;6.43;;
9420;SDS011;4749;51.398;5.466;2023-04-06T12:54:31;8.80;;;6.45;;
9420;SDS011;4749;51.398;5.466;2023-04-06T12:56:58;9.85;;;7.30;;
9420;SDS011;4749;51.398;5.466;2023-04-06T12:59:27;10.23;;;7.30;;
9420;SDS011;4749;51.398;5.466;2023-04-06T13:02:00;11.18;;;7.10;;
9420;SDS011;4749;51.398;5.466;2023-04-06T13:04:29;9.98;;;6.40;;
9420;SDS011;4749;51.398;5.466;2023-04-06T13:06:56;9.00;;;6.30;;
9420;SDS011;4749;51.398;5.466;2023-04-06T13:09:23;11.63;;;7.35;;
9420;SDS011;4749;51.398;5.466;2023-04-06T13:11:52;9.27;;;6.68;;
9420;SDS011;4749;51.398;5.466;2023-04-06T13:14:19;10.20;;;7.32;;
9420;SDS011;4749;51.398;5.466;2023-04-06T13:16:47;10.82;;;7.20;;
9420;SDS011;4749;51.398;5.466;2023-04-06T13:19:14;10.15;;;6.47;;
9420;SDS011;4749;51.398;5.466;2023-04-06T13:21:42;12.20;;;7.55;;
9420;SDS011;4749;51.398;5.466;2023-04-06T13:24:09;9.45;;;7.00;;
9420;SDS011;4749;51.398;5.466;2023-04-06T13:26:36;12.60;;;6.95;;
9420;SDS011;4749;51.398;5.466;2023-04-06T13:29:03;8.57;;;6.53;;
9420;SDS011;4749;51.398;5.466;2023-04-06T13:31:31;8.25;;;6.20;;
9420;SDS011;4749;51.398;5.466;2023-04-06T13:33:58;9.82;;;6.85;;
9420;SDS011;4749;51.398;5.466;2023-04-06T13:36:25;9.45;;;6.18;;
9420;SDS011;4749;51.398;5.466;2023-04-06T13:38:53;9.45;;;6.47;;
9420;SDS011;4749;51.398;5.466;2023-04-06T13:41:22;7.70;;;5.53;;
9420;SDS011;4749;51.398;5.466;2023-04-06T13:43:52;11.07;;;5.82;;
9420;SDS011;4749;51.398;5.466;2023-04-06T13:46:20;9.27;;;6.28;;
9420;SDS011;4749;51.398;5.466;2023-04-06T13:48:48;7.93;;;5.85;;
9420;SDS011;4749;51.398;5.466;2023-04-06T13:51:16;8.60;;;5.78;;
9420;SDS011;4749;51.398;5.466;2023-04-06T13:53:43;16.85;;;12.38;;
9420;SDS011;4749;51.398;5.466;2023-04-06T13:56:10;9.85;;;7.03;;
9420;SDS011;4749;51.398;5.466;2023-04-06T13:58:37;10.32;;;6.32;;
9420;SDS011;4749;51.398;5.466;2023-04-06T14:01:05;8.63;;;6.40;;
9420;SDS011;4749;51.398;5.466;2023-04-06T14:03:36;8.07;;;6.25;;
9420;SDS011;4749;51.398;5.466;2023-04-06T14:06:09;9.55;;;6.90;;
9420;SDS011;4749;51.398;5.466;2023-04-06T14:08:55;9.80;;;6.95;;
9420;SDS011;4749;51.398;5.466;2023-04-06T14:11:23;10.07;;;6.75;;
9420;SDS011;4749;51.398;5.466;2023-04-06T14:13:50;10.13;;;6.80;;
9420;SDS011;4749;51.398;5.466;2023-04-06T14:16:17;10.73;;;6.75;;
9420;SDS011;4749;51.398;5.466;2023-04-06T14:18:46;10.90;;;7.20;;
9420;SDS011;4749;51.398;5.466;2023-04-06T14:21:13;10.82;;;7.20;;
9420;SDS011;4749;51.398;5.466;2023-04-06T14:23:41;12.40;;;7.43;;
9420;SDS011;4749;51.398;5.466;2023-04-06T14:26:08;10.23;;;7.07;;
9420;SDS011;4749;51.398;5.466;2023-04-06T14:28:35;11.82;;;7.13;;
9420;SDS011;4749;51.398;5.466;2023-04-06T14:31:09;13.95;;;7.97;;
9420;SDS011;4749;51.398;5.466;2023-04-06T14:33:38;9.82;;;7.22;;
9420;SDS011;4749;51.398;5.466;2023-04-06T14:36:06;11.48;;;7.90;;
9420;SDS011;4749;51.398;5.466;2023-04-06T14:38:34;9.32;;;6.82;;
9420;SDS011;4749;51.398;5.466;2023-04-06T14:41:02;12.00;;;7.22;;
9420;SDS011;4749;51.398;5.466;2023-04-06T14:43:29;12.05;;;7.10;;
9420;SDS011;4749;51.398;5.466;2023-04-06T14:46:00;9.35;;;6.82;;
9420;SDS011;4749;51.398;5.466;2023-04-06T14:48:28;12.63;;;7.00;;
9420;SDS011;4749;51.398;5.466;2023-04-06T14:50:55;11.00;;;7.20;;
9420;SDS011;4749;51.398;5.466;2023-04-06T14:53:33;11.52;;;7.75;;
9420;SDS011;4749;51.398;5.466;2023-04-06T14:56:00;11.48;;;7.25;;
9420;SDS011;4749;51.398;5.466;2023-04-06T14:58:27;10.40;;;7.68;;
9420;SDS011;4749;51.398;5.466;2023-04-06T15:01:00;10.88;;;7.45;;
9420;SDS011;4749;51.398;5.466;2023-04-06T15:03:29;11.00;;;7.88;;
9420;SDS011;4749;51.398;5.466;2023-04-06T15:05:56;11.25;;;7.78;;
9420;SDS011;4749;51.398;5.466;2023-04-06T15:08:24;10.63;;;7.43;;